createdAt,value
2022-09-20T00:01:45.495Z,98934.88
2022-09-20T00:03:52.016Z,98934.88
2022-09-20T00:05:56.843Z,98928.16
2022-09-20T00:08:01.633Z,98939.47
2022-09-20T00:10:07.118Z,98938.53
2022-09-20T00:12:12.079Z,98945.41
2022-09-20T00:14:19.443Z,98942.81
2022-09-20T00:16:26.680Z,98943.72
2022-09-20T00:18:31.591Z,98942.03
2022-09-20T00:20:36.386Z,98929.06
2022-09-20T00:22:41.364Z,98929.00
2022-09-20T00:24:49.066Z,98932.53
2022-09-20T00:26:55.409Z,98928.97
2022-09-20T00:29:01.572Z,98924.47
2022-09-20T00:31:09.163Z,98920.06
2022-09-20T00:33:13.897Z,98911.59
2022-09-20T00:35:16.403Z,98910.84
2022-09-20T00:37:21.145Z,98913.50
2022-09-20T00:39:26.117Z,98929.06
2022-09-20T00:41:32.342Z,98922.38
2022-09-20T00:43:42.547Z,98923.25
2022-09-20T00:45:49.126Z,98928.47
2022-09-20T00:48:01.097Z,98925.13
2022-09-20T00:50:15.485Z,98923.41
2022-09-20T00:52:20.953Z,98921.72
2022-09-20T00:54:27.984Z,98911.19
2022-09-20T00:56:35.771Z,98911.22
2022-09-20T00:58:45.635Z,98915.38
2022-09-20T01:00:52.555Z,98910.19
2022-09-20T01:03:05.008Z,98913.63
2022-09-20T01:05:12.476Z,98917.22
2022-09-20T01:07:22.330Z,98912.16
2022-09-20T01:09:27.276Z,98913.91
2022-09-20T01:11:32.865Z,98914.63
2022-09-20T01:13:37.780Z,98909.47
2022-09-20T01:15:45.080Z,98906.59
2022-09-20T01:17:53.342Z,98899.69
2022-09-20T01:20:14.115Z,98899.75
2022-09-20T01:22:25.848Z,98904.84
2022-09-20T01:24:36.745Z,98901.25
2022-09-20T01:27:11.343Z,98896.81
2022-09-20T01:29:31.954Z,98903.75
2022-09-20T01:31:40.258Z,98894.28
2022-09-20T01:33:50.118Z,98894.56
2022-09-20T01:35:57.413Z,98902.47
2022-09-20T01:38:29.685Z,98913.06
2022-09-20T01:40:42.350Z,98917.44
2022-09-20T01:42:54.205Z,98923.50
2022-09-20T01:45:06.994Z,98914.81
2022-09-20T01:47:19.128Z,98920.13
2022-09-20T01:49:32.530Z,98919.38
2022-09-20T01:52:11.947Z,98916.81
2022-09-20T01:54:44.670Z,98935.06
2022-09-20T01:57:27.477Z,98932.38
2022-09-20T01:59:55.124Z,98930.50
2022-09-20T02:02:39.405Z,98930.31
2022-09-20T02:05:16.423Z,98929.31
2022-09-20T02:07:38.399Z,98940.56
2022-09-20T02:10:01.122Z,98933.31
2022-09-20T02:12:33.408Z,98919.41
2022-09-20T02:14:50.101Z,98918.44
2022-09-20T02:16:58.431Z,98915.84
2022-09-20T02:19:33.027Z,98915.63
2022-09-20T02:21:41.565Z,98908.59
2022-09-20T02:23:54.898Z,98907.72
2022-09-20T02:26:22.497Z,98903.41
2022-09-20T02:28:43.255Z,98906.19
2022-09-20T02:30:55.423Z,98915.75
2022-09-20T02:33:15.994Z,98907.19
2022-09-20T02:35:36.704Z,98908.00
2022-09-20T02:38:12.965Z,98907.91
2022-09-20T02:40:34.889Z,98907.75
2022-09-20T02:42:47.816Z,98902.44
2022-09-20T02:45:05.627Z,98898.19
2022-09-20T02:47:20.970Z,98900.53
2022-09-20T02:49:34.530Z,98904.00
2022-09-20T02:51:44.182Z,98893.66
2022-09-20T02:53:58.871Z,98902.16
2022-09-20T02:56:10.101Z,98906.38
2022-09-20T02:58:30.676Z,98897.34
2022-09-20T03:00:42.705Z,98878.25
2022-09-20T03:03:00.592Z,98880.97
2022-09-20T03:05:14.546Z,98883.56
2022-09-20T03:07:32.907Z,98880.91
2022-09-20T03:09:46.246Z,98889.41
2022-09-20T03:12:02.697Z,98879.81
2022-09-20T03:14:16.615Z,98883.50
2022-09-20T03:16:34.120Z,98887.84
2022-09-20T03:18:51.902Z,98881.09
2022-09-20T03:21:04.346Z,98894.19
2022-09-20T03:23:25.381Z,98908.91
2022-09-20T03:25:40.769Z,98904.59
2022-09-20T03:27:52.834Z,98898.56
2022-09-20T03:30:16.146Z,98900.56
2022-09-20T03:32:39.846Z,98896.38
2022-09-20T03:34:56.092Z,98909.31
2022-09-20T03:37:15.821Z,98900.66
2022-09-20T03:39:41.049Z,98893.97
2022-09-20T03:41:59.949Z,98895.75
2022-09-20T03:44:23.729Z,98888.75
2022-09-20T03:46:30.344Z,98909.38
2022-09-20T03:49:03.116Z,98896.91
2022-09-20T03:51:24.246Z,98895.03
2022-09-20T03:53:55.199Z,98884.63
2022-09-20T03:56:28.613Z,98878.63
2022-09-20T03:58:48.840Z,98885.78
2022-09-20T04:01:11.397Z,98891.75
2022-09-20T04:03:41.531Z,98887.44
2022-09-20T04:05:56.562Z,98898.81
2022-09-20T04:08:14.203Z,98896.09
2022-09-20T04:10:36.112Z,98894.25
2022-09-20T04:12:58.819Z,98890.78
2022-09-20T04:15:19.006Z,98879.88
2022-09-20T04:17:39.933Z,98887.78
2022-09-20T04:19:51.697Z,98891.38
2022-09-20T04:21:59.738Z,98896.78
2022-09-20T04:24:13.169Z,98897.63
2022-09-20T04:26:23.259Z,98903.22
2022-09-20T04:28:37.498Z,98906.19
2022-09-20T04:30:44.224Z,98915.97
2022-09-20T04:32:54.965Z,98927.94
2022-09-20T04:35:18.508Z,98926.38
2022-09-20T04:37:33.143Z,98933.69
2022-09-20T04:39:49.505Z,98945.84
2022-09-20T04:42:33.484Z,98942.41
2022-09-20T04:45:12.727Z,98947.88
2022-09-20T04:47:48.803Z,98951.53
2022-09-20T04:50:32.658Z,98959.81
2022-09-20T04:53:29.209Z,98965.19
2022-09-20T04:55:53.348Z,98977.44
2022-09-20T04:58:33.173Z,98983.56
2022-09-20T05:00:59.793Z,98982.88
2022-09-20T05:03:52.043Z,98990.75
2022-09-20T05:06:12.262Z,98992.50
2022-09-20T05:08:46.896Z,98995.09
2022-09-20T05:11:36.584Z,98997.00
2022-09-20T05:13:59.017Z,98997.78
2022-09-20T05:16:12.855Z,99001.13
2022-09-20T05:18:44.902Z,98992.28
2022-09-20T05:21:07.706Z,98993.09
2022-09-20T05:23:40.041Z,98979.16
2022-09-20T05:25:58.778Z,98979.91
2022-09-20T05:28:09.243Z,98972.06
2022-09-20T05:30:23.048Z,98975.59
2022-09-20T05:32:36.646Z,98981.50
2022-09-20T05:34:48.689Z,98970.97
2022-09-20T05:37:01.342Z,98972.66
2022-09-20T05:39:19.460Z,98971.69
2022-09-20T05:41:34.802Z,98969.69
2022-09-20T05:43:49.399Z,98963.66
2022-09-20T05:46:06.483Z,98962.63
2022-09-20T05:48:20.628Z,98961.75
2022-09-20T05:50:42.876Z,98961.69
2022-09-20T05:52:58.544Z,98966.75
2022-09-20T05:55:23.720Z,98968.41
2022-09-20T05:57:40.212Z,98962.31
2022-09-20T05:59:59.543Z,98958.66
2022-09-20T06:02:21.725Z,98956.88
2022-09-20T06:04:33.399Z,98968.25
2022-09-20T06:06:54.768Z,98968.25
2022-09-20T06:09:35.066Z,98976.94
2022-09-20T06:11:54.104Z,98979.56
2022-09-20T06:14:13.123Z,98981.16
2022-09-20T06:16:29.405Z,98969.91
2022-09-20T06:18:41.802Z,98966.75
2022-09-20T06:21:00.352Z,98960.94
2022-09-20T06:23:08.253Z,98952.44
2022-09-20T06:25:23.472Z,98942.50
2022-09-20T06:27:32.653Z,98932.78
2022-09-20T06:29:40.758Z,98936.44
2022-09-20T06:31:45.542Z,98940.59
2022-09-20T06:33:56.015Z,98939.28
2022-09-20T06:36:22.042Z,98938.91
2022-09-20T06:38:58.732Z,98941.97
2022-09-20T06:41:16.014Z,98955.78
2022-09-20T06:43:20.791Z,98957.09
2022-09-20T06:45:25.845Z,98954.41
2022-09-20T06:47:30.598Z,98955.84
2022-09-20T06:49:36.071Z,98946.00
2022-09-20T06:51:43.616Z,98936.59
2022-09-20T06:53:48.435Z,98940.94
2022-09-20T06:55:53.648Z,98942.50
2022-09-20T06:57:58.430Z,98938.34
2022-09-20T07:00:03.554Z,98948.75
2022-09-20T07:02:08.309Z,98947.94
2022-09-20T07:04:13.061Z,98948.88
2022-09-20T07:06:19.860Z,98954.75
2022-09-20T07:08:27.279Z,98952.44
2022-09-20T07:10:32.109Z,98956.22
2022-09-20T07:12:36.814Z,98933.66
2022-09-20T07:14:43.099Z,98941.56
2022-09-20T07:16:47.886Z,98932.25
2022-09-20T07:18:53.120Z,98934.81
2022-09-20T07:20:58.867Z,98931.19
2022-09-20T07:23:04.079Z,98929.22
2022-09-20T07:25:12.034Z,98930.75
2022-09-20T07:27:16.909Z,98931.91
2022-09-20T07:29:21.677Z,98920.28
2022-09-20T07:31:28.686Z,98906.28
2022-09-20T07:33:33.433Z,98917.59
2022-09-20T07:35:38.562Z,98915.38
2022-09-20T07:37:44.441Z,98904.09
2022-09-20T07:39:50.001Z,98909.31
2022-09-20T07:41:57.683Z,98899.69
2022-09-20T07:44:20.985Z,98906.78
2022-09-20T07:46:25.701Z,98893.75
2022-09-20T07:48:33.064Z,98903.63
2022-09-20T07:50:38.874Z,98895.03
2022-09-20T07:52:43.879Z,98908.72
2022-09-20T07:54:50.054Z,98898.41
2022-09-20T07:56:57.580Z,98905.97
2022-09-20T07:59:02.330Z,98909.94
2022-09-20T08:01:09.547Z,98916.53
2022-09-20T08:03:14.312Z,98909.41
2022-09-20T08:05:19.303Z,98897.06
2022-09-20T08:07:24.360Z,98893.41
2022-09-20T08:09:29.289Z,98890.94
2022-09-20T08:11:35.931Z,98889.25
2022-09-20T08:16:13.460Z,98884.91
2022-09-20T08:18:18.242Z,98884.69
2022-09-20T08:20:23.150Z,98879.53
2022-09-20T08:22:28.269Z,98880.50
2022-09-20T08:24:33.190Z,98884.88
2022-09-20T08:26:38.723Z,98896.19
2022-09-20T08:28:46.414Z,98898.09
2022-09-20T08:30:51.220Z,98881.97
2022-09-20T08:32:56.754Z,98889.44
2022-09-20T08:35:01.517Z,98891.09
2022-09-20T08:37:06.405Z,98887.97
2022-09-20T08:41:41.337Z,98894.66
2022-09-20T08:43:54.596Z,98892.41
2022-09-20T08:46:05.576Z,98887.25
2022-09-20T08:48:15.813Z,98888.16
2022-09-20T08:50:20.767Z,98872.84
2022-09-20T08:52:36.427Z,98883.81
2022-09-20T08:54:43.654Z,98878.78
2022-09-20T08:56:51.189Z,98879.78
2022-09-20T08:59:00.398Z,98882.38
2022-09-20T09:01:06.714Z,98882.78
2022-09-20T09:03:17.327Z,98886.06
2022-09-20T09:05:34.357Z,98878.41
2022-09-20T09:07:40.253Z,98882.50
2022-09-20T09:09:47.414Z,98874.81
2022-09-20T09:11:53.554Z,98861.03
2022-09-20T09:14:05.113Z,98853.16
2022-09-20T09:16:15.354Z,98848.66
2022-09-20T09:18:20.178Z,98844.81
2022-09-20T09:20:26.899Z,98848.53
2022-09-20T09:22:37.279Z,98843.91
2022-09-20T09:24:48.111Z,98851.19
2022-09-20T09:26:53.581Z,98858.03
2022-09-20T09:29:22.995Z,98867.97
2022-09-20T09:31:29.055Z,98878.94
2022-09-20T09:33:34.980Z,98865.00
2022-09-20T09:35:40.186Z,98874.94
2022-09-20T09:37:55.504Z,98867.34
2022-09-20T09:40:16.681Z,98874.81
2022-09-20T09:42:24.203Z,98883.44
2022-09-20T09:44:35.588Z,98892.78
2022-09-20T09:46:46.203Z,98891.47
2022-09-20T09:49:10.270Z,98892.75
2022-09-20T09:51:17.652Z,98879.44
2022-09-20T09:53:26.022Z,98872.72
2022-09-20T09:55:46.214Z,98852.94
2022-09-20T09:58:03.302Z,98851.56
2022-09-20T10:00:20.254Z,98845.22
2022-09-20T10:02:53.353Z,98929.28
2022-09-20T10:05:03.365Z,99009.44
2022-09-20T10:07:15.954Z,99047.72
2022-09-20T10:09:44.894Z,99011.00
2022-09-20T10:12:10.190Z,98938.56
2022-09-20T10:14:33.202Z,98947.66
2022-09-20T10:16:58.506Z,98904.56
2022-09-20T10:19:13.177Z,98882.84
2022-09-20T10:21:41.360Z,98882.28
2022-09-20T10:24:03.987Z,98875.94
2022-09-20T10:26:22.492Z,98893.22
2022-09-20T10:28:48.436Z,98883.31
2022-09-20T10:31:05.584Z,98875.72
2022-09-20T10:33:21.154Z,98885.84
2022-09-20T10:35:31.157Z,98872.28
2022-09-20T10:37:49.447Z,98879.13
2022-09-20T10:40:06.015Z,98882.91
2022-09-20T10:42:34.732Z,98871.22
2022-09-20T10:44:52.717Z,98866.19
2022-09-20T10:47:09.825Z,98860.66
2022-09-20T10:49:26.803Z,98859.94
2022-09-20T10:51:43.269Z,98854.50
2022-09-20T10:53:54.284Z,98846.75
2022-09-20T10:56:11.062Z,98839.16
2022-09-20T10:58:57.064Z,98815.00
2022-09-20T11:01:05.665Z,98816.88
2022-09-20T11:03:25.451Z,98807.69
2022-09-20T11:05:40.504Z,98815.09
2022-09-20T11:07:59.770Z,98799.19
2022-09-20T11:10:10.397Z,98799.13
2022-09-20T11:12:19.494Z,98799.72
2022-09-20T11:14:32.711Z,98802.19
2022-09-20T11:16:42.041Z,98806.22
2022-09-20T11:18:52.592Z,98790.22
2022-09-20T11:21:09.818Z,98801.34
2022-09-20T11:23:21.730Z,98798.38
2022-09-20T11:25:33.829Z,98794.97
2022-09-20T11:27:44.110Z,98790.28
2022-09-20T11:29:54.735Z,98793.97
2022-09-20T11:32:06.294Z,98792.91
2022-09-20T11:34:18.075Z,98799.91
2022-09-20T11:36:29.436Z,98795.16
2022-09-20T11:38:40.320Z,98797.69
2022-09-20T11:41:03.548Z,98779.25
2022-09-20T11:43:27.518Z,98795.16
2022-09-20T11:45:34.141Z,98782.09
2022-09-20T11:47:54.657Z,98779.47
2022-09-20T11:50:38.482Z,98764.47
2022-09-20T11:53:36.600Z,98769.13
2022-09-20T11:55:50.272Z,98767.47
2022-09-20T11:58:06.699Z,98761.59
2022-09-20T12:06:32.607Z,98772.31
2022-09-20T12:08:42.499Z,98783.66
2022-09-20T12:10:59.194Z,98795.53
2022-09-20T12:13:06.327Z,98808.81
2022-09-20T12:15:26.825Z,98792.69
2022-09-20T12:18:05.534Z,98802.47
2022-09-20T12:20:42.978Z,98801.19
2022-09-20T12:22:47.835Z,98786.19
2022-09-20T12:25:30.172Z,98783.47
2022-09-20T12:27:59.621Z,98772.38
2022-09-20T12:30:18.829Z,98770.97
2022-09-20T12:32:57.295Z,98766.56
2022-09-20T12:35:02.203Z,98758.25
2022-09-20T12:37:21.919Z,98758.47
2022-09-20T12:39:30.460Z,98756.00
2022-09-20T12:41:54.005Z,98752.09
2022-09-20T12:44:25.630Z,98746.28
2022-09-20T12:46:36.486Z,98757.66
2022-09-20T12:48:41.702Z,98767.31
2022-09-20T12:50:59.069Z,98762.66
2022-09-20T12:53:04.313Z,98763.00
2022-09-20T12:55:11.231Z,98759.75
2022-09-20T12:57:32.626Z,98758.09
2022-09-20T12:59:37.594Z,98758.19
2022-09-20T13:01:43.800Z,98765.09
2022-09-20T13:03:51.540Z,98773.75
2022-09-20T13:06:28.760Z,98754.47
2022-09-20T13:08:39.345Z,98744.91
2022-09-20T13:10:45.616Z,98735.59
2022-09-20T13:12:57.066Z,98740.25
2022-09-20T13:15:02.045Z,98743.94
2022-09-20T13:17:16.181Z,98750.31
2022-09-20T13:19:23.990Z,98742.22
2022-09-20T13:21:29.524Z,98749.34
2022-09-20T13:23:34.951Z,98738.19
2022-09-20T13:25:42.753Z,98740.00
2022-09-20T13:27:56.164Z,98740.69
2022-09-20T13:30:12.425Z,98738.06
2022-09-20T13:32:20.808Z,98733.13
2022-09-20T13:34:29.220Z,98732.63
2022-09-20T13:36:36.172Z,98733.16
2022-09-20T13:38:41.151Z,98725.44
2022-09-20T13:40:48.097Z,98736.22
2022-09-20T13:43:22.159Z,98727.47
2022-09-20T13:45:25.020Z,98723.88
2022-09-20T13:47:30.575Z,98721.91
2022-09-20T13:49:35.503Z,98721.00
2022-09-20T13:51:40.281Z,98708.38
2022-09-20T13:53:44.985Z,98714.69
2022-09-20T13:55:49.701Z,98717.09
2022-09-20T13:57:57.858Z,98716.31
2022-09-20T14:00:05.596Z,98719.16
2022-09-20T14:02:25.282Z,98713.47
2022-09-20T14:04:32.447Z,98722.81
2022-09-20T14:06:38.202Z,98730.38
2022-09-20T14:08:46.671Z,98732.22
2022-09-20T14:11:03.914Z,98728.50
2022-09-20T14:13:18.193Z,98731.88
2022-09-20T14:15:23.749Z,98733.69
2022-09-20T14:17:30.494Z,98723.53
2022-09-20T14:19:38.963Z,98730.16
2022-09-20T14:21:44.687Z,98716.53
2022-09-20T14:23:54.827Z,98711.16
2022-09-20T14:26:10.329Z,98721.91
2022-09-20T14:28:28.054Z,98715.41
2022-09-20T14:30:36.307Z,98711.03
2022-09-20T14:32:44.917Z,98700.94
2022-09-20T14:35:01.697Z,98705.25
2022-09-20T14:37:10.197Z,98710.16
2022-09-20T14:39:19.437Z,98706.59
2022-09-20T14:41:30.609Z,98707.72
2022-09-20T14:43:39.061Z,98703.31
2022-09-20T14:45:44.111Z,98702.34
2022-09-20T14:47:57.189Z,98698.63
2022-09-20T14:50:02.945Z,98698.97
2022-09-20T14:52:41.005Z,98703.75
2022-09-20T14:54:45.901Z,98709.75
2022-09-20T14:56:53.135Z,98708.66
2022-09-20T14:59:09.966Z,98706.84
2022-09-20T15:01:26.043Z,98706.88
2022-09-20T15:03:34.038Z,98706.56
2022-09-20T15:05:39.771Z,98710.66
2022-09-20T15:07:45.231Z,98709.41
2022-09-20T15:09:50.134Z,98705.78
2022-09-20T15:12:06.260Z,98707.72
2022-09-20T15:14:13.627Z,98698.38
2022-09-20T15:16:21.489Z,98711.28
2022-09-20T15:18:29.088Z,98706.88
2022-09-20T15:20:33.978Z,98708.50
2022-09-20T15:22:39.049Z,98719.75
2022-09-20T15:24:44.652Z,98713.25
2022-09-20T15:26:49.486Z,98713.88
2022-09-20T15:28:54.842Z,98720.19
2022-09-20T15:31:02.089Z,98722.75
2022-09-20T15:33:06.928Z,98732.94
2022-09-20T15:35:11.864Z,98724.53
2022-09-20T15:37:16.635Z,98727.69
2022-09-20T15:39:22.226Z,98729.63
2022-09-20T15:41:31.240Z,98732.78
2022-09-20T15:43:36.393Z,98729.00
2022-09-20T15:45:52.175Z,98740.22
2022-09-20T15:47:59.867Z,98742.53
2022-09-20T15:50:04.957Z,98747.78
2022-09-20T15:52:11.352Z,98745.31
2022-09-20T15:54:18.050Z,98753.06
2022-09-20T15:56:24.487Z,98753.06
2022-09-20T15:58:33.518Z,98743.88
2022-09-20T16:00:40.613Z,98752.53
2022-09-20T16:02:45.349Z,98753.28
2022-09-20T16:04:55.729Z,98759.66
2022-09-20T16:07:00.608Z,98758.72
2022-09-20T16:09:05.988Z,98764.81
2022-09-20T16:11:13.536Z,98765.81
2022-09-20T16:13:18.262Z,98772.19
2022-09-20T16:15:22.995Z,98770.28
2022-09-20T16:17:39.965Z,98779.31
2022-09-20T16:19:46.450Z,98780.50
2022-09-20T16:21:58.196Z,98798.72
2022-09-20T16:24:05.419Z,98792.84
2022-09-20T16:26:13.283Z,98809.88
2022-09-20T16:28:18.167Z,98813.69
2022-09-20T16:30:23.026Z,98831.63
2022-09-20T16:32:27.751Z,98847.75
2022-09-20T16:34:34.275Z,98859.75
2022-09-20T16:36:39.233Z,98870.59
2022-09-20T16:38:46.581Z,98885.28
2022-09-20T16:40:52.251Z,98873.63
2022-09-20T16:42:58.711Z,98887.81
2022-09-20T16:45:03.634Z,98887.44
2022-09-20T16:47:18.769Z,98891.72
2022-09-20T16:49:24.726Z,98886.06
2022-09-20T16:51:35.173Z,98890.25
2022-09-20T16:53:39.929Z,98894.41
2022-09-20T16:55:49.333Z,98890.91
2022-09-20T16:57:54.497Z,98886.53
2022-09-20T16:59:59.720Z,98895.06
2022-09-20T17:02:04.513Z,98890.19
2022-09-20T17:04:09.789Z,98891.16
2022-09-20T17:06:15.744Z,98889.44
2022-09-20T17:08:21.170Z,98898.13
2022-09-20T17:10:29.361Z,98909.59
2022-09-20T17:12:41.987Z,98906.84
2022-09-20T17:14:46.730Z,98904.59
2022-09-20T17:16:52.026Z,98902.06
2022-09-20T17:18:58.271Z,98908.34
2022-09-20T17:21:07.170Z,98909.22
2022-09-20T17:23:14.971Z,98903.81
2022-09-20T17:25:19.760Z,98908.09
2022-09-20T17:27:24.604Z,98903.63
2022-09-20T17:29:31.928Z,98895.72
2022-09-20T17:31:39.283Z,98903.44
2022-09-20T17:33:45.098Z,98903.69
2022-09-20T17:35:54.121Z,98924.00
2022-09-20T17:37:58.906Z,98913.59
2022-09-20T17:40:04.236Z,98922.41
2022-09-20T17:42:09.633Z,98923.66
2022-09-20T17:44:15.014Z,98922.19
2022-09-20T17:46:24.676Z,98939.00
2022-09-20T17:48:31.063Z,98936.59
2022-09-20T17:50:35.819Z,98948.75
2022-09-20T17:52:40.562Z,98946.97
2022-09-20T17:54:45.341Z,98941.69
2022-09-20T17:56:51.737Z,98950.50
2022-09-20T17:58:56.805Z,98954.31
2022-09-20T18:01:09.732Z,98964.22
2022-09-20T18:03:20.189Z,98965.28
2022-09-20T18:05:24.945Z,98962.84
2022-09-20T18:07:29.681Z,98957.69
2022-09-20T18:09:34.449Z,98973.53
2022-09-20T18:11:40.967Z,98968.41
2022-09-20T18:13:46.124Z,98972.22
2022-09-20T18:15:51.060Z,98982.78
2022-09-20T18:17:56.086Z,98986.41
2022-09-20T18:20:04.304Z,98988.19
2022-09-20T18:22:09.054Z,98984.78
2022-09-20T18:24:14.754Z,98995.16
2022-09-20T18:26:27.710Z,98998.63
2022-09-20T18:28:32.458Z,98998.50
2022-09-20T18:30:37.200Z,99003.94
2022-09-20T18:32:44.465Z,99018.91
2022-09-20T18:34:51.286Z,99012.97
2022-09-20T18:37:00.406Z,99021.75
2022-09-20T18:39:06.171Z,99022.69
2022-09-20T18:41:14.103Z,99021.84
2022-09-20T18:43:19.238Z,99028.25
2022-09-20T18:45:24.243Z,99023.13
2022-09-20T18:47:28.993Z,99029.28
2022-09-20T18:49:34.475Z,99042.53
2022-09-20T18:51:40.476Z,99047.84
2022-09-20T18:53:47.954Z,99053.09
2022-09-20T18:55:53.678Z,99048.84
2022-09-20T18:58:01.444Z,99054.97
2022-09-20T19:00:08.104Z,99060.22
2022-09-20T19:02:25.920Z,99053.31
2022-09-20T19:04:40.130Z,99057.78
2022-09-20T19:06:51.667Z,99054.47
2022-09-20T19:09:05.598Z,99058.78
2022-09-20T19:11:15.282Z,99061.56
2022-09-20T19:13:35.800Z,99059.94
2022-09-20T19:15:54.718Z,99059.94
2022-09-20T19:18:18.404Z,99062.59
2022-09-20T19:20:34.442Z,99066.03
2022-09-20T19:22:47.435Z,99064.47
2022-09-20T19:25:21.220Z,99067.19
2022-09-20T19:27:26.766Z,99081.19
2022-09-20T19:29:33.237Z,99081.16
2022-09-20T19:31:38.538Z,99086.38
2022-09-20T19:33:43.597Z,99080.34
2022-09-20T19:35:52.400Z,99085.50
2022-09-20T19:38:06.361Z,99082.84
2022-09-20T19:40:24.830Z,99085.56
2022-09-20T19:42:40.644Z,99087.25
2022-09-20T19:44:50.967Z,99082.19
2022-09-20T19:47:12.908Z,99085.66
2022-09-20T19:49:22.361Z,99093.56
2022-09-20T19:51:28.685Z,99095.47
2022-09-20T19:53:34.254Z,99100.81
2022-09-20T19:55:44.180Z,99099.19
2022-09-20T19:57:50.002Z,99107.16
2022-09-20T19:59:55.830Z,99103.13
2022-09-20T20:02:01.434Z,99112.78
2022-09-20T20:04:07.241Z,99115.50
2022-09-20T20:06:21.521Z,99117.16
2022-09-20T20:08:37.639Z,99119.66
2022-09-20T20:10:57.089Z,99116.03
2022-09-20T20:13:28.421Z,99117.63
2022-09-20T20:15:47.105Z,99121.84
2022-09-20T20:18:01.185Z,99127.97
2022-09-20T20:20:18.609Z,99127.09
2022-09-20T20:22:41.009Z,99133.06
2022-09-20T20:24:53.099Z,99137.44
2022-09-20T20:27:00.513Z,99136.59
2022-09-20T20:29:05.318Z,99142.59
2022-09-20T20:31:12.765Z,99139.91
2022-09-20T20:33:18.986Z,99138.19
2022-09-20T20:35:23.925Z,99145.88
2022-09-20T20:37:28.957Z,99137.16
2022-09-20T20:39:34.506Z,99142.38
2022-09-20T20:41:39.447Z,99134.63
2022-09-20T20:43:48.313Z,99138.94
2022-09-20T20:45:53.160Z,99139.09
2022-09-20T20:47:59.204Z,99129.81
2022-09-20T20:50:04.543Z,99134.19
2022-09-20T20:52:09.080Z,99136.31
2022-09-20T20:54:13.812Z,99138.22
2022-09-20T20:56:21.100Z,99136.97
2022-09-20T20:58:26.069Z,99131.88
2022-09-20T21:00:33.392Z,99138.81
2022-09-20T21:02:38.208Z,99139.75
2022-09-20T21:04:43.109Z,99145.84
2022-09-20T21:06:48.089Z,99149.34
2022-09-20T21:08:52.906Z,99146.78
2022-09-20T21:11:05.927Z,99146.84
2022-09-20T21:13:11.066Z,99146.94
2022-09-20T21:15:16.070Z,99151.31
2022-09-20T21:17:23.417Z,99150.44
2022-09-20T21:19:28.208Z,99162.63
2022-09-20T21:21:35.382Z,99160.88
2022-09-20T21:23:40.155Z,99166.00
2022-09-20T21:25:45.190Z,99166.09
2022-09-20T21:27:50.318Z,99177.34
2022-09-20T21:29:54.919Z,99175.00
2022-09-20T21:31:59.654Z,99178.44
2022-09-20T21:34:07.422Z,99175.91
2022-09-20T21:36:15.028Z,99183.72
2022-09-20T21:38:20.388Z,99192.38
2022-09-20T21:40:25.594Z,99188.94
2022-09-20T21:42:30.312Z,99199.44
2022-09-20T21:44:35.060Z,99198.75
2022-09-20T21:46:41.421Z,99201.34
2022-09-20T21:48:47.237Z,99197.13
2022-09-20T21:50:54.929Z,99195.47
2022-09-20T21:52:59.808Z,99191.50
2022-09-20T21:55:07.019Z,99198.63
2022-09-20T21:57:13.754Z,99202.28
2022-09-20T21:59:20.468Z,99203.28
2022-09-20T22:01:26.723Z,99200.75
2022-09-20T22:03:39.013Z,99199.06
2022-09-20T22:05:43.771Z,99194.88
2022-09-20T22:07:51.609Z,99193.13
2022-09-20T22:09:56.341Z,99201.78
2022-09-20T22:12:01.173Z,99195.63
2022-09-20T22:14:06.324Z,99199.06
2022-09-20T22:16:13.643Z,99200.84
2022-09-20T22:18:18.396Z,99205.22
2022-09-20T22:20:23.143Z,99211.31
2022-09-20T22:22:27.996Z,99207.88
2022-09-20T22:24:35.296Z,99209.63
2022-09-20T22:26:42.596Z,99206.13
2022-09-20T22:28:49.952Z,99208.78
2022-09-20T22:30:54.747Z,99209.63
2022-09-20T22:32:59.568Z,99205.34
2022-09-20T22:35:04.328Z,99205.38
2022-09-20T22:37:09.047Z,99206.22
2022-09-20T22:39:15.252Z,99200.28
2022-09-20T22:41:23.620Z,99198.69
2022-09-20T22:43:28.482Z,99195.41
2022-09-20T22:45:34.186Z,99198.00
2022-09-20T22:47:39.054Z,99202.44
2022-09-20T22:49:43.793Z,99195.63
2022-09-20T22:51:48.591Z,99192.22
2022-09-20T22:53:53.864Z,99190.63
2022-09-20T22:56:04.298Z,99194.28
2022-09-20T22:58:11.616Z,99195.91
2022-09-20T23:00:17.490Z,99197.59
2022-09-20T23:02:22.237Z,99205.31
2022-09-20T23:04:27.016Z,99204.63
2022-09-20T23:06:33.552Z,99207.22
2022-09-20T23:08:38.560Z,99212.41
2022-09-20T23:10:43.319Z,99215.06
2022-09-20T23:12:52.151Z,99208.97
2022-09-20T23:14:59.428Z,99214.94
2022-09-20T23:17:04.219Z,99215.78
2022-09-20T23:19:10.502Z,99214.09
2022-09-20T23:21:17.226Z,99208.81
2022-09-20T23:23:23.676Z,99211.41
2022-09-20T23:25:28.439Z,99211.41
2022-09-20T23:27:33.157Z,99212.31
2022-09-20T23:29:37.984Z,99212.34
2022-09-20T23:31:47.343Z,99215.84
2022-09-20T23:33:54.287Z,99221.13
2022-09-20T23:35:59.164Z,99221.13
2022-09-20T23:38:04.085Z,99221.16
2022-09-20T23:40:10.079Z,99217.78
2022-09-20T23:42:14.886Z,99219.56
2022-09-20T23:44:19.618Z,99218.72
2022-09-20T23:46:25.966Z,99216.19
2022-09-20T23:48:33.751Z,99225.69
2022-09-20T23:50:38.512Z,99224.06
2022-09-20T23:52:43.240Z,99222.38
2022-09-20T23:54:47.982Z,99218.97
2022-09-20T23:56:52.667Z,99214.69
2022-09-20T23:58:57.716Z,99219.91
